sensor_id;sensor_type;location;lat;lon;timestamp;P1;durP1;ratioP1;P2;durP2;ratioP2
7621;SDS011;3852;52.284;8.032;2022-10-22T00:00:07;9.57;;;7.80;;
7621;SDS011;3852;52.284;8.032;2022-10-22T00:02:37;11.20;;;8.80;;
7621;SDS011;3852;52.284;8.032;2022-10-22T00:05:03;9.10;;;8.20;;
7621;SDS011;3852;52.284;8.032;2022-10-22T00:07:29;12.37;;;8.40;;
7621;SDS011;3852;52.284;8.032;2022-10-22T00:09:55;12.37;;;9.50;;
7621;SDS011;3852;52.284;8.032;2022-10-22T00:12:21;14.20;;;10.93;;
7621;SDS011;3852;52.284;8.032;2022-10-22T00:14:47;10.30;;;9.10;;
7621;SDS011;3852;52.284;8.032;2022-10-22T00:17:13;13.17;;;10.13;;
7621;SDS011;3852;52.284;8.032;2022-10-22T00:19:39;11.57;;;9.53;;
7621;SDS011;3852;52.284;8.032;2022-10-22T00:22:06;9.97;;;8.97;;
7621;SDS011;3852;52.284;8.032;2022-10-22T00:24:34;12.07;;;9.20;;
7621;SDS011;3852;52.284;8.032;2022-10-22T00:27:02;12.07;;;9.57;;
7621;SDS011;3852;52.284;8.032;2022-10-22T00:29:29;10.50;;;9.00;;
7621;SDS011;3852;52.284;8.032;2022-10-22T00:31:55;11.67;;;8.67;;
7621;SDS011;3852;52.284;8.032;2022-10-22T00:34:23;11.67;;;8.60;;
7621;SDS011;3852;52.284;8.032;2022-10-22T00:36:50;10.33;;;8.80;;
7621;SDS011;3852;52.284;8.032;2022-10-22T00:39:17;9.87;;;8.47;;
7621;SDS011;3852;52.284;8.032;2022-10-22T00:41:46;13.10;;;7.93;;
7621;SDS011;3852;52.284;8.032;2022-10-22T00:47:26;9.03;;;7.80;;
7621;SDS011;3852;52.284;8.032;2022-10-22T00:50:00;11.73;;;8.70;;
7621;SDS011;3852;52.284;8.032;2022-10-22T00:52:28;10.67;;;8.07;;
7621;SDS011;3852;52.284;8.032;2022-10-22T00:54:54;10.30;;;7.60;;
7621;SDS011;3852;52.284;8.032;2022-10-22T00:57:21;8.63;;;7.67;;
7621;SDS011;3852;52.284;8.032;2022-10-22T00:59:47;9.37;;;7.60;;
7621;SDS011;3852;52.284;8.032;2022-10-22T01:02:14;8.57;;;7.67;;
7621;SDS011;3852;52.284;8.032;2022-10-22T01:04:40;8.20;;;7.10;;
7621;SDS011;3852;52.284;8.032;2022-10-22T01:07:06;8.47;;;7.13;;
7621;SDS011;3852;52.284;8.032;2022-10-22T01:09:41;8.67;;;7.50;;
7621;SDS011;3852;52.284;8.032;2022-10-22T01:26:20;12.40;;;9.53;;
7621;SDS011;3852;52.284;8.032;2022-10-22T01:31:43;9.27;;;8.37;;
7621;SDS011;3852;52.284;8.032;2022-10-22T01:34:16;10.50;;;9.33;;
7621;SDS011;3852;52.284;8.032;2022-10-22T01:36:43;11.23;;;8.73;;
7621;SDS011;3852;52.284;8.032;2022-10-22T01:39:11;10.93;;;9.83;;
7621;SDS011;3852;52.284;8.032;2022-10-22T01:41:40;10.53;;;9.07;;
7621;SDS011;3852;52.284;8.032;2022-10-22T02:02:09;10.53;;;9.43;;
7621;SDS011;3852;52.284;8.032;2022-10-22T02:04:49;10.53;;;9.53;;
7621;SDS011;3852;52.284;8.032;2022-10-22T02:07:48;11.10;;;9.53;;
7621;SDS011;3852;52.284;8.032;2022-10-22T02:10:18;13.47;;;9.80;;
7621;SDS011;3852;52.284;8.032;2022-10-22T02:12:47;10.20;;;9.20;;
7621;SDS011;3852;52.284;8.032;2022-10-22T02:15:16;10.00;;;8.93;;
7621;SDS011;3852;52.284;8.032;2022-10-22T02:17:45;9.93;;;8.93;;
7621;SDS011;3852;52.284;8.032;2022-10-22T02:20:13;11.57;;;9.77;;
7621;SDS011;3852;52.284;8.032;2022-10-22T02:22:44;10.77;;;9.67;;
7621;SDS011;3852;52.284;8.032;2022-10-22T02:25:10;11.07;;;9.40;;
7621;SDS011;3852;52.284;8.032;2022-10-22T02:27:45;10.77;;;9.37;;
7621;SDS011;3852;52.284;8.032;2022-10-22T02:30:16;9.87;;;8.87;;
7621;SDS011;3852;52.284;8.032;2022-10-22T02:32:53;13.77;;;9.23;;
7621;SDS011;3852;52.284;8.032;2022-10-22T02:35:39;11.83;;;9.20;;
7621;SDS011;3852;52.284;8.032;2022-10-22T02:38:06;10.53;;;8.53;;
7621;SDS011;3852;52.284;8.032;2022-10-22T02:40:33;9.73;;;8.83;;
7621;SDS011;3852;52.284;8.032;2022-10-22T02:42:59;11.60;;;9.47;;
7621;SDS011;3852;52.284;8.032;2022-10-22T02:45:29;11.33;;;9.20;;
7621;SDS011;3852;52.284;8.032;2022-10-22T02:47:55;10.73;;;9.13;;
7621;SDS011;3852;52.284;8.032;2022-10-22T02:50:21;10.23;;;9.20;;
7621;SDS011;3852;52.284;8.032;2022-10-22T02:52:47;9.73;;;8.70;;
7621;SDS011;3852;52.284;8.032;2022-10-22T02:55:13;10.63;;;9.40;;
7621;SDS011;3852;52.284;8.032;2022-10-22T02:57:39;10.53;;;9.30;;
7621;SDS011;3852;52.284;8.032;2022-10-22T03:00:05;10.57;;;9.37;;
7621;SDS011;3852;52.284;8.032;2022-10-22T03:02:32;10.27;;;8.47;;
7621;SDS011;3852;52.284;8.032;2022-10-22T03:04:58;9.73;;;8.73;;
7621;SDS011;3852;52.284;8.032;2022-10-22T03:07:24;9.63;;;8.60;;
7621;SDS011;3852;52.284;8.032;2022-10-22T03:09:50;9.83;;;8.83;;
7621;SDS011;3852;52.284;8.032;2022-10-22T03:12:16;10.53;;;8.20;;
7621;SDS011;3852;52.284;8.032;2022-10-22T03:14:41;9.50;;;8.60;;
7621;SDS011;3852;52.284;8.032;2022-10-22T03:17:08;11.47;;;8.70;;
7621;SDS011;3852;52.284;8.032;2022-10-22T03:19:33;11.77;;;9.13;;
7621;SDS011;3852;52.284;8.032;2022-10-22T03:22:00;10.40;;;9.37;;
7621;SDS011;3852;52.284;8.032;2022-10-22T03:24:33;10.63;;;9.10;;
7621;SDS011;3852;52.284;8.032;2022-10-22T03:27:05;10.03;;;9.03;;
7621;SDS011;3852;52.284;8.032;2022-10-22T03:29:31;10.87;;;9.70;;
7621;SDS011;3852;52.284;8.032;2022-10-22T03:32:00;10.13;;;8.67;;
7621;SDS011;3852;52.284;8.032;2022-10-22T03:34:26;10.23;;;8.47;;
7621;SDS011;3852;52.284;8.032;2022-10-22T03:36:52;9.97;;;8.87;;
7621;SDS011;3852;52.284;8.032;2022-10-22T03:39:18;11.97;;;8.67;;
7621;SDS011;3852;52.284;8.032;2022-10-22T03:41:46;10.93;;;8.80;;
7621;SDS011;3852;52.284;8.032;2022-10-22T03:44:14;9.93;;;8.93;;
7621;SDS011;3852;52.284;8.032;2022-10-22T03:46:41;10.60;;;8.50;;
7621;SDS011;3852;52.284;8.032;2022-10-22T03:49:06;9.10;;;8.20;;
7621;SDS011;3852;52.284;8.032;2022-10-22T03:51:32;10.03;;;8.33;;
7621;SDS011;3852;52.284;8.032;2022-10-22T03:53:58;10.20;;;8.83;;
7621;SDS011;3852;52.284;8.032;2022-10-22T03:56:24;10.07;;;8.27;;
7621;SDS011;3852;52.284;8.032;2022-10-22T03:58:50;9.97;;;8.70;;
7621;SDS011;3852;52.284;8.032;2022-10-22T04:01:26;10.67;;;8.63;;
7621;SDS011;3852;52.284;8.032;2022-10-22T04:03:53;11.53;;;8.83;;
7621;SDS011;3852;52.284;8.032;2022-10-22T04:06:20;10.97;;;8.70;;
7621;SDS011;3852;52.284;8.032;2022-10-22T04:08:46;11.27;;;8.17;;
7621;SDS011;3852;52.284;8.032;2022-10-22T04:11:12;8.80;;;8.00;;
7621;SDS011;3852;52.284;8.032;2022-10-22T04:13:40;11.00;;;8.00;;
7621;SDS011;3852;52.284;8.032;2022-10-22T04:16:10;12.80;;;9.37;;
7621;SDS011;3852;52.284;8.032;2022-10-22T04:18:44;11.17;;;9.47;;
7621;SDS011;3852;52.284;8.032;2022-10-22T04:21:13;14.67;;;11.17;;
7621;SDS011;3852;52.284;8.032;2022-10-22T04:23:45;17.83;;;13.60;;
7621;SDS011;3852;52.284;8.032;2022-10-22T04:26:13;22.63;;;15.77;;
7621;SDS011;3852;52.284;8.032;2022-10-22T04:28:41;19.30;;;14.10;;
7621;SDS011;3852;52.284;8.032;2022-10-22T04:31:14;21.63;;;16.33;;
7621;SDS011;3852;52.284;8.032;2022-10-22T04:33:43;23.40;;;16.77;;
7621;SDS011;3852;52.284;8.032;2022-10-22T04:36:13;19.60;;;14.60;;
7621;SDS011;3852;52.284;8.032;2022-10-22T04:38:43;18.20;;;13.90;;
7621;SDS011;3852;52.284;8.032;2022-10-22T04:41:11;15.60;;;12.63;;
7621;SDS011;3852;52.284;8.032;2022-10-22T04:43:43;12.77;;;11.03;;
7621;SDS011;3852;52.284;8.032;2022-10-22T04:46:10;14.20;;;10.87;;
7621;SDS011;3852;52.284;8.032;2022-10-22T04:48:37;12.20;;;10.43;;
7621;SDS011;3852;52.284;8.032;2022-10-22T04:51:05;14.63;;;11.40;;
7621;SDS011;3852;52.284;8.032;2022-10-22T04:53:33;13.53;;;11.17;;
7621;SDS011;3852;52.284;8.032;2022-10-22T04:56:09;12.43;;;10.77;;
7621;SDS011;3852;52.284;8.032;2022-10-22T04:58:47;15.40;;;10.50;;
7621;SDS011;3852;52.284;8.032;2022-10-22T05:01:16;11.07;;;9.90;;
7621;SDS011;3852;52.284;8.032;2022-10-22T05:03:46;13.10;;;10.87;;
7621;SDS011;3852;52.284;8.032;2022-10-22T05:06:16;13.50;;;11.10;;
7621;SDS011;3852;52.284;8.032;2022-10-22T05:08:44;12.97;;;10.43;;
7621;SDS011;3852;52.284;8.032;2022-10-22T05:11:13;13.30;;;10.57;;
7621;SDS011;3852;52.284;8.032;2022-10-22T05:13:44;13.50;;;10.70;;
7621;SDS011;3852;52.284;8.032;2022-10-22T05:16:11;15.20;;;11.97;;
7621;SDS011;3852;52.284;8.032;2022-10-22T05:18:38;13.03;;;11.27;;
7621;SDS011;3852;52.284;8.032;2022-10-22T05:21:08;14.53;;;12.00;;
7621;SDS011;3852;52.284;8.032;2022-10-22T05:23:40;16.67;;;12.57;;
7621;SDS011;3852;52.284;8.032;2022-10-22T05:26:08;16.70;;;12.37;;
7621;SDS011;3852;52.284;8.032;2022-10-22T05:28:36;12.80;;;11.30;;
7621;SDS011;3852;52.284;8.032;2022-10-22T05:31:03;14.70;;;11.77;;
7621;SDS011;3852;52.284;8.032;2022-10-22T05:33:31;13.20;;;11.43;;
7621;SDS011;3852;52.284;8.032;2022-10-22T05:35:58;16.37;;;11.13;;
7621;SDS011;3852;52.284;8.032;2022-10-22T05:38:25;13.77;;;11.27;;
7621;SDS011;3852;52.284;8.032;2022-10-22T05:40:58;14.23;;;11.50;;
7621;SDS011;3852;52.284;8.032;2022-10-22T05:43:31;13.83;;;12.43;;
7621;SDS011;3852;52.284;8.032;2022-10-22T05:46:04;13.87;;;11.43;;
7621;SDS011;3852;52.284;8.032;2022-10-22T05:48:33;13.67;;;11.80;;
7621;SDS011;3852;52.284;8.032;2022-10-22T05:51:00;17.03;;;11.77;;
7621;SDS011;3852;52.284;8.032;2022-10-22T05:53:30;13.00;;;11.47;;
7621;SDS011;3852;52.284;8.032;2022-10-22T05:56:00;15.23;;;11.57;;
7621;SDS011;3852;52.284;8.032;2022-10-22T05:58:28;14.87;;;11.43;;
7621;SDS011;3852;52.284;8.032;2022-10-22T06:00:59;14.87;;;11.43;;
7621;SDS011;3852;52.284;8.032;2022-10-22T06:03:26;16.07;;;11.60;;
7621;SDS011;3852;52.284;8.032;2022-10-22T06:05:53;13.20;;;10.80;;
7621;SDS011;3852;52.284;8.032;2022-10-22T06:08:19;13.50;;;11.33;;
7621;SDS011;3852;52.284;8.032;2022-10-22T06:10:45;13.60;;;10.87;;
7621;SDS011;3852;52.284;8.032;2022-10-22T06:13:10;11.73;;;10.10;;
7621;SDS011;3852;52.284;8.032;2022-10-22T06:15:36;11.60;;;10.40;;
7621;SDS011;3852;52.284;8.032;2022-10-22T06:18:02;12.37;;;10.00;;
7621;SDS011;3852;52.284;8.032;2022-10-22T06:20:28;12.13;;;10.73;;
7621;SDS011;3852;52.284;8.032;2022-10-22T06:22:53;15.00;;;11.23;;
7621;SDS011;3852;52.284;8.032;2022-10-22T06:25:19;13.13;;;11.07;;
7621;SDS011;3852;52.284;8.032;2022-10-22T06:27:48;13.37;;;11.07;;
7621;SDS011;3852;52.284;8.032;2022-10-22T06:30:15;13.97;;;11.27;;
7621;SDS011;3852;52.284;8.032;2022-10-22T06:32:41;13.13;;;11.23;;
7621;SDS011;3852;52.284;8.032;2022-10-22T06:35:07;14.83;;;10.17;;
7621;SDS011;3852;52.284;8.032;2022-10-22T06:37:33;14.37;;;11.00;;
7621;SDS011;3852;52.284;8.032;2022-10-22T06:39:59;13.10;;;10.83;;
7621;SDS011;3852;52.284;8.032;2022-10-22T06:42:24;12.33;;;10.87;;
7621;SDS011;3852;52.284;8.032;2022-10-22T06:44:52;11.67;;;10.40;;
7621;SDS011;3852;52.284;8.032;2022-10-22T06:47:18;11.60;;;10.17;;
7621;SDS011;3852;52.284;8.032;2022-10-22T06:49:44;13.73;;;11.27;;
7621;SDS011;3852;52.284;8.032;2022-10-22T06:52:09;13.77;;;11.13;;
7621;SDS011;3852;52.284;8.032;2022-10-22T06:54:36;14.27;;;10.97;;
7621;SDS011;3852;52.284;8.032;2022-10-22T06:57:02;13.97;;;10.87;;
7621;SDS011;3852;52.284;8.032;2022-10-22T06:59:28;13.03;;;10.97;;
7621;SDS011;3852;52.284;8.032;2022-10-22T07:01:54;12.63;;;10.40;;
7621;SDS011;3852;52.284;8.032;2022-10-22T07:04:19;16.83;;;11.20;;
7621;SDS011;3852;52.284;8.032;2022-10-22T07:06:45;15.83;;;11.70;;
7621;SDS011;3852;52.284;8.032;2022-10-22T07:09:11;14.53;;;10.67;;
7621;SDS011;3852;52.284;8.032;2022-10-22T07:11:44;13.37;;;10.93;;
7621;SDS011;3852;52.284;8.032;2022-10-22T07:14:10;14.77;;;11.67;;
7621;SDS011;3852;52.284;8.032;2022-10-22T07:16:38;13.37;;;10.90;;
7621;SDS011;3852;52.284;8.032;2022-10-22T07:19:07;14.93;;;11.37;;
7621;SDS011;3852;52.284;8.032;2022-10-22T07:21:33;12.67;;;10.80;;
7621;SDS011;3852;52.284;8.032;2022-10-22T07:23:59;13.73;;;11.23;;
7621;SDS011;3852;52.284;8.032;2022-10-22T07:26:25;15.13;;;10.27;;
7621;SDS011;3852;52.284;8.032;2022-10-22T07:28:54;13.50;;;10.03;;
7621;SDS011;3852;52.284;8.032;2022-10-22T07:31:20;16.80;;;10.97;;
7621;SDS011;3852;52.284;8.032;2022-10-22T07:33:49;15.70;;;10.90;;
7621;SDS011;3852;52.284;8.032;2022-10-22T07:36:15;14.20;;;11.73;;
7621;SDS011;3852;52.284;8.032;2022-10-22T07:38:45;14.37;;;11.40;;
7621;SDS011;3852;52.284;8.032;2022-10-22T07:41:13;15.67;;;10.87;;
7621;SDS011;3852;52.284;8.032;2022-10-22T07:43:40;16.70;;;11.63;;
7621;SDS011;3852;52.284;8.032;2022-10-22T07:46:06;15.57;;;11.37;;
7621;SDS011;3852;52.284;8.032;2022-10-22T07:48:33;15.27;;;11.47;;
7621;SDS011;3852;52.284;8.032;2022-10-22T07:51:00;19.17;;;12.10;;
7621;SDS011;3852;52.284;8.032;2022-10-22T07:53:26;18.63;;;12.23;;
7621;SDS011;3852;52.284;8.032;2022-10-22T07:55:52;16.37;;;12.60;;
7621;SDS011;3852;52.284;8.032;2022-10-22T07:58:19;19.90;;;13.20;;
7621;SDS011;3852;52.284;8.032;2022-10-22T08:00:46;17.23;;;12.20;;
7621;SDS011;3852;52.284;8.032;2022-10-22T08:03:12;18.73;;;11.77;;
7621;SDS011;3852;52.284;8.032;2022-10-22T08:05:40;13.83;;;10.70;;
7621;SDS011;3852;52.284;8.032;2022-10-22T08:08:07;14.20;;;10.00;;
7621;SDS011;3852;52.284;8.032;2022-10-22T08:10:37;15.03;;;10.87;;
7621;SDS011;3852;52.284;8.032;2022-10-22T08:13:04;11.70;;;9.47;;
7621;SDS011;3852;52.284;8.032;2022-10-22T08:15:30;13.80;;;9.80;;
7621;SDS011;3852;52.284;8.032;2022-10-22T08:17:56;9.47;;;8.40;;
7621;SDS011;3852;52.284;8.032;2022-10-22T08:20:22;14.63;;;8.40;;
7621;SDS011;3852;52.284;8.032;2022-10-22T08:22:48;12.53;;;8.10;;
7621;SDS011;3852;52.284;8.032;2022-10-22T08:25:14;10.40;;;7.00;;
7621;SDS011;3852;52.284;8.032;2022-10-22T08:27:42;9.80;;;6.47;;
7621;SDS011;3852;52.284;8.032;2022-10-22T08:30:08;6.67;;;5.70;;
7621;SDS011;3852;52.284;8.032;2022-10-22T08:32:35;8.43;;;5.93;;
7621;SDS011;3852;52.284;8.032;2022-10-22T08:35:01;7.87;;;5.60;;
7621;SDS011;3852;52.284;8.032;2022-10-22T08:37:27;7.47;;;5.30;;
7621;SDS011;3852;52.284;8.032;2022-10-22T08:39:52;15.97;;;5.67;;
7621;SDS011;3852;52.284;8.032;2022-10-22T08:42:41;8.00;;;5.90;;
7621;SDS011;3852;52.284;8.032;2022-10-22T08:48:42;9.20;;;5.30;;
7621;SDS011;3852;52.284;8.032;2022-10-22T08:51:26;7.37;;;4.70;;
7621;SDS011;3852;52.284;8.032;2022-10-22T08:54:13;5.67;;;4.70;;
7621;SDS011;3852;52.284;8.032;2022-10-22T09:08:34;4.97;;;4.00;;
7621;SDS011;3852;52.284;8.032;2022-10-22T09:11:03;9.97;;;4.30;;
7621;SDS011;3852;52.284;8.032;2022-10-22T09:13:36;5.97;;;4.50;;
7621;SDS011;3852;52.284;8.032;2022-10-22T09:16:26;5.83;;;4.20;;
7621;SDS011;3852;52.284;8.032;2022-10-22T09:19:13;7.80;;;4.50;;
7621;SDS011;3852;52.284;8.032;2022-10-22T09:24:37;7.67;;;4.20;;
7621;SDS011;3852;52.284;8.032;2022-10-22T09:27:11;10.07;;;4.50;;
7621;SDS011;3852;52.284;8.032;2022-10-22T09:29:46;7.50;;;4.33;;
7621;SDS011;3852;52.284;8.032;2022-10-22T09:32:16;7.27;;;4.40;;
7621;SDS011;3852;52.284;8.032;2022-10-22T09:34:43;7.60;;;4.40;;
7621;SDS011;3852;52.284;8.032;2022-10-22T09:37:15;5.37;;;4.10;;
7621;SDS011;3852;52.284;8.032;2022-10-22T09:39:44;8.07;;;4.23;;
7621;SDS011;3852;52.284;8.032;2022-10-22T09:42:17;9.03;;;3.93;;
7621;SDS011;3852;52.284;8.032;2022-10-22T09:44:50;9.33;;;4.20;;
7621;SDS011;3852;52.284;8.032;2022-10-22T09:47:27;6.93;;;3.80;;
7621;SDS011;3852;52.284;8.032;2022-10-22T09:50:11;9.13;;;4.63;;
7621;SDS011;3852;52.284;8.032;2022-10-22T09:52:57;9.37;;;4.67;;
7621;SDS011;3852;52.284;8.032;2022-10-22T09:55:30;8.50;;;4.70;;
7621;SDS011;3852;52.284;8.032;2022-10-22T09:57:57;5.90;;;4.10;;
7621;SDS011;3852;52.284;8.032;2022-10-22T10:00:24;7.83;;;4.10;;
7621;SDS011;3852;52.284;8.032;2022-10-22T10:02:54;8.17;;;4.07;;
7621;SDS011;3852;52.284;8.032;2022-10-22T10:05:40;8.10;;;4.17;;
7621;SDS011;3852;52.284;8.032;2022-10-22T10:08:11;6.90;;;4.03;;
7621;SDS011;3852;52.284;8.032;2022-10-22T10:10:53;9.53;;;3.93;;
7621;SDS011;3852;52.284;8.032;2022-10-22T10:14:47;7.17;;;3.87;;
7621;SDS011;3852;52.284;8.032;2022-10-22T10:17:18;4.93;;;3.60;;
7621;SDS011;3852;52.284;8.032;2022-10-22T10:20:15;8.50;;;3.63;;
7621;SDS011;3852;52.284;8.032;2022-10-22T10:28:19;10.47;;;3.73;;
7621;SDS011;3852;52.284;8.032;2022-10-22T10:37:19;9.77;;;3.20;;
7621;SDS011;3852;52.284;8.032;2022-10-22T10:39:26;6.23;;;2.87;;
7621;SDS011;3852;52.284;8.032;2022-10-22T10:47:38;8.70;;;2.93;;
7621;SDS011;3852;52.284;8.032;2022-10-22T10:53:25;5.03;;;2.80;;
7621;SDS011;3852;52.284;8.032;2022-10-22T11:08:27;8.53;;;3.30;;
7621;SDS011;3852;52.284;8.032;2022-10-22T11:16:40;8.13;;;3.40;;
7621;SDS011;3852;52.284;8.032;2022-10-22T11:22:08;5.00;;;2.67;;
7621;SDS011;3852;52.284;8.032;2022-10-22T11:24:45;7.97;;;2.37;;
7621;SDS011;3852;52.284;8.032;2022-10-22T11:30:27;7.03;;;2.80;;
7621;SDS011;3852;52.284;8.032;2022-10-22T11:33:01;5.10;;;2.40;;
7621;SDS011;3852;52.284;8.032;2022-10-22T11:35:37;8.20;;;3.10;;
7621;SDS011;3852;52.284;8.032;2022-10-22T11:38:06;8.10;;;2.80;;
7621;SDS011;3852;52.284;8.032;2022-10-22T11:40:38;4.50;;;3.00;;
7621;SDS011;3852;52.284;8.032;2022-10-22T11:43:31;5.77;;;3.27;;
7621;SDS011;3852;52.284;8.032;2022-10-22T11:46:08;6.57;;;2.80;;
7621;SDS011;3852;52.284;8.032;2022-10-22T11:49:40;4.43;;;2.40;;
7621;SDS011;3852;52.284;8.032;2022-10-22T11:52:23;4.77;;;2.20;;
7621;SDS011;3852;52.284;8.032;2022-10-22T11:54:57;8.53;;;2.53;;
7621;SDS011;3852;52.284;8.032;2022-10-22T11:57:36;7.07;;;2.60;;
7621;SDS011;3852;52.284;8.032;2022-10-22T12:00:20;6.30;;;2.70;;
7621;SDS011;3852;52.284;8.032;2022-10-22T12:03:14;7.13;;;2.70;;
7621;SDS011;3852;52.284;8.032;2022-10-22T12:06:28;6.37;;;2.40;;
7621;SDS011;3852;52.284;8.032;2022-10-22T12:11:21;6.20;;;2.87;;
7621;SDS011;3852;52.284;8.032;2022-10-22T12:14:15;8.03;;;3.07;;
7621;SDS011;3852;52.284;8.032;2022-10-22T12:19:39;5.23;;;2.60;;
7621;SDS011;3852;52.284;8.032;2022-10-22T12:24:52;4.00;;;2.60;;
7621;SDS011;3852;52.284;8.032;2022-10-22T12:27:35;5.33;;;2.70;;
7621;SDS011;3852;52.284;8.032;2022-10-22T12:30:19;5.57;;;2.53;;
7621;SDS011;3852;52.284;8.032;2022-10-22T12:32:59;8.67;;;2.80;;
7621;SDS011;3852;52.284;8.032;2022-10-22T12:35:28;4.53;;;2.93;;
7621;SDS011;3852;52.284;8.032;2022-10-22T12:37:59;5.70;;;2.30;;
7621;SDS011;3852;52.284;8.032;2022-10-22T12:40:28;3.57;;;2.63;;
7621;SDS011;3852;52.284;8.032;2022-10-22T12:43:00;7.43;;;3.53;;
7621;SDS011;3852;52.284;8.032;2022-10-22T12:45:34;7.03;;;2.57;;
7621;SDS011;3852;52.284;8.032;2022-10-22T12:48:02;4.47;;;2.60;;
7621;SDS011;3852;52.284;8.032;2022-10-22T12:50:33;4.13;;;2.93;;
7621;SDS011;3852;52.284;8.032;2022-10-22T12:53:14;6.30;;;2.60;;
7621;SDS011;3852;52.284;8.032;2022-10-22T12:55:59;4.10;;;2.80;;
7621;SDS011;3852;52.284;8.032;2022-10-22T12:58:29;7.23;;;2.73;;
7621;SDS011;3852;52.284;8.032;2022-10-22T13:01:10;7.47;;;2.90;;
7621;SDS011;3852;52.284;8.032;2022-10-22T13:03:43;4.40;;;2.70;;
7621;SDS011;3852;52.284;8.032;2022-10-22T13:19:48;5.17;;;3.00;;
7621;SDS011;3852;52.284;8.032;2022-10-22T13:25:36;7.67;;;3.17;;
7621;SDS011;3852;52.284;8.032;2022-10-22T13:28:17;4.57;;;3.20;;
7621;SDS011;3852;52.284;8.032;2022-10-22T13:30:55;7.80;;;3.50;;
7621;SDS011;3852;52.284;8.032;2022-10-22T13:35:54;4.23;;;2.80;;
7621;SDS011;3852;52.284;8.032;2022-10-22T13:38:22;5.10;;;3.27;;
7621;SDS011;3852;52.284;8.032;2022-10-22T13:40:50;5.10;;;3.87;;
7621;SDS011;3852;52.284;8.032;2022-10-22T13:43:16;4.70;;;4.00;;
7621;SDS011;3852;52.284;8.032;2022-10-22T13:45:43;5.23;;;4.20;;
7621;SDS011;3852;52.284;8.032;2022-10-22T13:48:12;6.50;;;4.17;;
7621;SDS011;3852;52.284;8.032;2022-10-22T13:50:45;5.50;;;4.40;;
7621;SDS011;3852;52.284;8.032;2022-10-22T13:53:14;6.90;;;4.60;;
7621;SDS011;3852;52.284;8.032;2022-10-22T13:55:45;4.53;;;4.13;;
7621;SDS011;3852;52.284;8.032;2022-10-22T13:58:15;4.93;;;4.43;;
7621;SDS011;3852;52.284;8.032;2022-10-22T14:00:44;5.57;;;3.97;;
7621;SDS011;3852;52.284;8.032;2022-10-22T14:03:15;8.37;;;4.27;;
7621;SDS011;3852;52.284;8.032;2022-10-22T14:05:47;5.50;;;3.83;;
7621;SDS011;3852;52.284;8.032;2022-10-22T14:08:14;5.33;;;3.77;;
7621;SDS011;3852;52.284;8.032;2022-10-22T14:10:43;4.20;;;3.30;;
7621;SDS011;3852;52.284;8.032;2022-10-22T14:13:09;7.30;;;3.70;;
7621;SDS011;3852;52.284;8.032;2022-10-22T14:15:36;5.97;;;3.60;;
7621;SDS011;3852;52.284;8.032;2022-10-22T14:18:05;7.67;;;3.53;;
7621;SDS011;3852;52.284;8.032;2022-10-22T14:20:34;6.97;;;3.50;;
7621;SDS011;3852;52.284;8.032;2022-10-22T14:23:06;3.53;;;3.03;;
7621;SDS011;3852;52.284;8.032;2022-10-22T14:25:41;4.67;;;3.57;;
7621;SDS011;3852;52.284;8.032;2022-10-22T14:28:10;5.57;;;3.20;;
7621;SDS011;3852;52.284;8.032;2022-10-22T14:30:36;4.80;;;3.03;;
7621;SDS011;3852;52.284;8.032;2022-10-22T14:33:12;3.67;;;3.23;;
7621;SDS011;3852;52.284;8.032;2022-10-22T14:35:41;5.77;;;2.70;;
7621;SDS011;3852;52.284;8.032;2022-10-22T14:38:07;9.93;;;3.30;;
7621;SDS011;3852;52.284;8.032;2022-10-22T14:40:34;5.43;;;2.93;;
7621;SDS011;3852;52.284;8.032;2022-10-22T14:43:03;3.73;;;2.70;;
7621;SDS011;3852;52.284;8.032;2022-10-22T14:45:29;8.10;;;3.17;;
7621;SDS011;3852;52.284;8.032;2022-10-22T14:47:55;6.53;;;2.90;;
7621;SDS011;3852;52.284;8.032;2022-10-22T14:50:22;6.43;;;3.13;;
7621;SDS011;3852;52.284;8.032;2022-10-22T14:52:49;6.97;;;3.20;;
7621;SDS011;3852;52.284;8.032;2022-10-22T14:55:16;6.20;;;3.30;;
7621;SDS011;3852;52.284;8.032;2022-10-22T14:57:44;5.73;;;3.40;;
7621;SDS011;3852;52.284;8.032;2022-10-22T15:00:11;6.77;;;3.33;;
7621;SDS011;3852;52.284;8.032;2022-10-22T15:02:40;7.60;;;3.57;;
7621;SDS011;3852;52.284;8.032;2022-10-22T15:05:06;5.53;;;2.80;;
7621;SDS011;3852;52.284;8.032;2022-10-22T15:07:32;3.70;;;2.80;;
7621;SDS011;3852;52.284;8.032;2022-10-22T15:09:58;4.07;;;3.00;;
7621;SDS011;3852;52.284;8.032;2022-10-22T15:12:24;4.70;;;2.83;;
7621;SDS011;3852;52.284;8.032;2022-10-22T15:14:50;7.87;;;3.00;;
7621;SDS011;3852;52.284;8.032;2022-10-22T15:17:18;6.90;;;2.70;;
7621;SDS011;3852;52.284;8.032;2022-10-22T15:19:44;4.80;;;2.70;;
7621;SDS011;3852;52.284;8.032;2022-10-22T15:22:10;5.43;;;2.77;;
7621;SDS011;3852;52.284;8.032;2022-10-22T15:24:38;7.27;;;2.80;;
7621;SDS011;3852;52.284;8.032;2022-10-22T15:27:04;5.37;;;2.90;;
7621;SDS011;3852;52.284;8.032;2022-10-22T15:29:30;5.60;;;3.00;;
7621;SDS011;3852;52.284;8.032;2022-10-22T15:31:57;5.90;;;3.10;;
7621;SDS011;3852;52.284;8.032;2022-10-22T15:34:27;7.10;;;3.30;;
7621;SDS011;3852;52.284;8.032;2022-10-22T15:36:57;8.17;;;3.47;;
7621;SDS011;3852;52.284;8.032;2022-10-22T15:39:26;13.80;;;7.80;;
7621;SDS011;3852;52.284;8.032;2022-10-22T15:41:52;13.17;;;8.73;;
7621;SDS011;3852;52.284;8.032;2022-10-22T15:44:20;9.63;;;3.87;;
7621;SDS011;3852;52.284;8.032;2022-10-22T15:46:48;7.13;;;3.40;;
7621;SDS011;3852;52.284;8.032;2022-10-22T15:49:15;6.37;;;3.47;;
7621;SDS011;3852;52.284;8.032;2022-10-22T15:51:44;7.07;;;3.13;;
7621;SDS011;3852;52.284;8.032;2022-10-22T15:54:14;9.87;;;4.57;;
7621;SDS011;3852;52.284;8.032;2022-10-22T15:56:46;6.53;;;3.57;;
7621;SDS011;3852;52.284;8.032;2022-10-22T15:59:12;5.13;;;4.00;;
7621;SDS011;3852;52.284;8.032;2022-10-22T16:01:39;8.13;;;3.37;;
7621;SDS011;3852;52.284;8.032;2022-10-22T16:04:06;10.77;;;7.83;;
7621;SDS011;3852;52.284;8.032;2022-10-22T16:06:37;9.73;;;8.73;;
7621;SDS011;3852;52.284;8.032;2022-10-22T16:09:07;8.87;;;4.90;;
7621;SDS011;3852;52.284;8.032;2022-10-22T16:11:39;8.73;;;3.90;;
7621;SDS011;3852;52.284;8.032;2022-10-22T16:14:06;5.47;;;3.50;;
7621;SDS011;3852;52.284;8.032;2022-10-22T16:16:35;5.60;;;3.40;;
7621;SDS011;3852;52.284;8.032;2022-10-22T16:19:04;6.90;;;4.07;;
7621;SDS011;3852;52.284;8.032;2022-10-22T16:21:30;18.27;;;8.83;;
7621;SDS011;3852;52.284;8.032;2022-10-22T16:23:55;17.80;;;15.70;;
7621;SDS011;3852;52.284;8.032;2022-10-22T16:26:21;9.60;;;5.80;;
7621;SDS011;3852;52.284;8.032;2022-10-22T16:28:47;6.40;;;4.97;;
7621;SDS011;3852;52.284;8.032;2022-10-22T16:31:14;6.93;;;4.43;;
7621;SDS011;3852;52.284;8.032;2022-10-22T16:33:42;8.73;;;4.20;;
7621;SDS011;3852;52.284;8.032;2022-10-22T16:36:08;7.07;;;4.27;;
7621;SDS011;3852;52.284;8.032;2022-10-22T16:38:37;7.17;;;4.70;;
7621;SDS011;3852;52.284;8.032;2022-10-22T16:43:43;6.87;;;4.27;;
7621;SDS011;3852;52.284;8.032;2022-10-22T16:46:12;5.97;;;4.47;;
7621;SDS011;3852;52.284;8.032;2022-10-22T16:48:43;8.23;;;5.93;;
7621;SDS011;3852;52.284;8.032;2022-10-22T16:51:14;9.17;;;5.00;;
7621;SDS011;3852;52.284;8.032;2022-10-22T16:53:43;8.37;;;5.50;;
7621;SDS011;3852;52.284;8.032;2022-10-22T16:56:10;7.20;;;4.93;;
7621;SDS011;3852;52.284;8.032;2022-10-22T16:58:37;7.17;;;4.80;;
7621;SDS011;3852;52.284;8.032;2022-10-22T17:01:07;7.77;;;6.60;;
7621;SDS011;3852;52.284;8.032;2022-10-22T17:03:34;10.07;;;5.60;;
7621;SDS011;3852;52.284;8.032;2022-10-22T17:06:01;10.60;;;5.73;;
7621;SDS011;3852;52.284;8.032;2022-10-22T17:08:28;7.90;;;5.43;;
7621;SDS011;3852;52.284;8.032;2022-10-22T17:10:55;11.27;;;5.20;;
7621;SDS011;3852;52.284;8.032;2022-10-22T17:13:21;8.53;;;5.43;;
7621;SDS011;3852;52.284;8.032;2022-10-22T17:15:47;8.53;;;5.03;;
7621;SDS011;3852;52.284;8.032;2022-10-22T17:18:13;7.30;;;4.97;;
7621;SDS011;3852;52.284;8.032;2022-10-22T17:20:42;6.17;;;4.83;;
7621;SDS011;3852;52.284;8.032;2022-10-22T17:23:10;10.50;;;5.33;;
7621;SDS011;3852;52.284;8.032;2022-10-22T17:25:40;11.67;;;5.90;;
7621;SDS011;3852;52.284;8.032;2022-10-22T17:28:08;9.17;;;6.10;;
7621;SDS011;3852;52.284;8.032;2022-10-22T17:30:35;9.33;;;7.07;;
7621;SDS011;3852;52.284;8.032;2022-10-22T17:33:09;9.03;;;6.97;;